Latest Weather Observations for Lucinda

IDQ60801

Issued at 7:32 pm EST Friday 1 July 2016 (issued every 30 minutes, with the page automatically refreshed every 10 minutes)

About weather observations | Map of weather stations | Latest weather observations for QLD | Other Formats
Station Details ID: 032141 Name: LUCINDA POINT Lat: -18.52 Lon: 146.39 Height: 10.0 m
Data from the previous 72 hours. | See also: Recent months at Lucinda
Date/Time
EST
Temp
°C
App
Temp
°C
Dew
Point
°C
Rel
Hum
%
Delta-T
°C
Wind Press
QNH
hPa
Press
MSL
hPa
Rain since
9am
mm
Dir  Spd
km/h
Gust
km/h
Spd
kts
Gust
kts
01/07:30pm 23.9 23.7 16.7 64 4.4 ESE 13 19 7 10 1018.6 1018.6 0.0
01/07:00pm 23.8 23.5 17.3 67 4.0 ESE 15 20 8 11 1018.4 1018.4 0.0
01/06:30pm 23.7 23.0 17.4 68 3.9 ESE 17 24 9 13 1018.1 1018.1 0.0
01/06:00pm 23.6 22.8 17.1 67 4.0 ESE 17 24 9 13 1017.7 1017.7 0.0
01/05:30pm 23.7 22.6 17.7 69 3.7 ESE 20 26 11 14 1017.4 1017.4 0.0
01/05:00pm 24.0 23.4 18.4 71 3.5 ESE 19 30 10 16 1017.0 1017.0 0.0
01/04:30pm 24.4 24.0 18.1 68 4.0 ESE 17 26 9 14 1016.6 1016.6 0.0
01/04:00pm 24.3 23.5 18.0 68 3.9 ESE 19 24 10 13 1016.6 1016.6 0.0
01/03:30pm 24.3 24.7 18.2 68 3.8 SE 13 22 7 12 1016.6 1016.6 0.0
01/03:00pm 24.8 25.1 18.7 69 3.9 ESE 15 19 8 10 1016.8 1016.8 0.0
01/02:30pm 23.9 25.6 20.2 80 2.4 SSE 11 15 6 8 1017.0 1017.0 0.0
01/02:00pm 23.6 25.1 19.7 79 2.5 SSE 11 15 6 8 1017.3 1017.3 0.0
01/01:30pm 23.6 25.2 19.9 80 2.4 S 11 15 6 8 1017.7 1017.7 0.0
01/01:00pm 23.1 24.2 19.7 81 2.2 S 13 17 7 9 1018.0 1018.0 0.0
01/12:30pm 22.7 23.0 19.5 82 2.0 S 17 19 9 10 1018.4 1018.4 0.0
01/12:00pm 22.5 22.7 19.3 82 2.0 S 17 20 9 11 1018.9 1018.9 0.0
01/11:30am 22.5 22.6 19.1 81 2.2 S 17 22 9 12 1019.2 1019.2 0.0
01/11:00am 22.0 22.2 19.4 85 1.7 SSW 17 20 9 11 1019.6 1019.6 0.0
01/10:30am 21.6 21.6 19.0 85 1.6 SSW 17 20 9 11 1019.9 1019.9 0.0
01/10:00am 21.6 21.2 19.0 85 1.6 SSW 19 22 10 12 1020.0 1020.0 0.0
01/09:30am 21.3 20.7 18.5 84 1.8 SW 19 22 10 12 1020.2 1020.2 0.0
01/09:00am 20.7 20.0 18.3 86 1.5 SW 19 20 10 11 1020.2 1020.2 0.0
01/08:30am 20.2 19.4 18.1 88 1.3 SW 19 20 10 11 1020.1 1020.1 0.0
01/08:00am 20.0 19.1 18.3 90 1.1 SW 20 20 11 11 1019.7 1019.7 0.0
01/07:30am 20.0 19.2 18.1 89 1.2 SW 19 20 10 11 1019.2 1019.2 0.0
01/07:00am 20.0 19.4 18.5 91 0.9 WSW 19 20 10 11 1018.9 1018.9 0.0
01/06:30am 20.0 19.4 18.5 91 0.9 WSW 19 20 10 11 1018.6 1018.6 0.0
01/06:00am 20.0 19.4 18.5 91 0.9 WSW 19 20 10 11 1018.2 1018.2 0.0
01/05:30am 19.9 19.1 18.4 91 0.9 WSW 20 22 11 12 1018.0 1018.0 0.0
01/05:00am 20.0 19.5 18.7 92 0.8 WSW 19 20 10 11 1017.9 1017.9 0.0
01/04:30am 20.4 19.9 19.1 92 0.8 SW 20 22 11 12 1017.8 1017.8 0.0
01/04:00am 20.1 19.6 18.6 91 0.9 SW 19 20 10 11 1017.6 1017.6 0.0
01/03:30am 20.1 19.9 18.4 90 1.1 WSW 17 19 9 10 1017.6 1017.6 0.0
01/03:00am 20.2 19.6 18.5 90 1.1 WSW 19 20 10 11 1017.9 1017.9 0.0
01/02:30am 20.7 20.3 18.8 89 1.2 SW 19 20 10 11 1018.0 1018.0 0.0
01/02:00am 20.3 19.8 18.6 90 1.1 SW 19 20 10 11 1018.2 1018.2 0.0
01/01:30am 20.7 20.1 18.8 89 1.2 SW 20 24 11 13 1018.5 1018.5 0.0
01/01:00am 20.6 20.0 18.5 88 1.3 WSW 19 20 10 11 1018.7 1018.7 0.0
01/12:30am 20.8 20.8 18.9 89 1.2 WSW 17 20 9 11 1018.8 1018.8 0.0
01/12:00am 20.7 20.6 18.8 89 1.2 WSW 17 20 9 11 1018.8 1018.8 0.0
 
Date/Time
EST
Temp
°C
App
Temp
°C
Dew
Point
°C
Rel
Hum
%
Delta-T
°C
Wind Press
QNH
hPa
Press
MSL
hPa
Rain since
9am
mm
Dir  Spd
km/h
Gust
km/h
Spd
kts
Gust
kts
30/11:30pm 20.7 20.3 18.8 89 1.2 SW 19 20 10 11 1018.9 1018.9 0.0
30/11:00pm 21.1 21.1 19.0 88 1.3 SW 17 19 9 10 1019.1 1019.1 0.0
30/10:30pm 21.4 21.0 19.0 86 1.5 SW 19 20 10 11 1019.3 1019.3 0.0
30/10:00pm 22.7 26.1 19.3 81 2.2 CALM 0 6 0 3 1019.2 1019.2 0.0
30/09:30pm 23.1 25.7 19.3 79 2.4 E 4 7 2 4 1019.4 1019.4 0.0
30/09:00pm 23.2 25.0 18.7 76 2.8 S 7 11 4 6 1019.5 1019.5 0.0
30/08:30pm 23.1 24.8 18.4 75 3.0 S 7 11 4 6 1019.5 1019.5 0.0
30/08:00pm 23.2 25.0 18.7 76 2.8 SSE 7 11 4 6 1019.3 1019.3 0.0
30/07:30pm 23.2 25.2 18.7 76 2.8 SE 6 9 3 5 1019.0 1019.0 0.0
30/07:00pm 23.0 24.7 18.5 76 2.8 E 7 9 4 5 1018.7 1018.7 0.0
30/06:30pm 22.9 24.7 18.7 77 2.7 E 7 9 4 5 1018.3 1018.3 0.0
30/06:00pm 22.9 24.1 18.2 75 2.9 ESE 9 11 5 6 1018.2 1018.2 0.0
30/05:30pm 23.1 24.4 18.4 75 3.0 SE 9 13 5 7 1018.0 1018.0 0.0
30/05:00pm 22.7 23.3 18.5 77 2.6 SSE 13 17 7 9 1017.8 1017.8 0.0
30/04:30pm 22.7 23.3 18.7 78 2.5 SSE 13 19 7 10 1017.6 1017.6 0.0
30/04:00pm 22.4 22.4 18.0 76 2.7 SSE 15 20 8 11 1017.5 1017.5 0.0
30/03:30pm 22.5 22.4 17.8 75 2.9 SSE 15 20 8 11 1017.4 1017.4 0.0
30/03:00pm 22.3 22.2 17.9 76 2.7 SSE 15 19 8 10 1017.5 1017.5 0.0
30/02:30pm 22.0 21.7 17.4 75 2.8 SSE 15 19 8 10 1017.7 1017.7 0.0
30/02:00pm 22.0 21.7 17.4 75 2.8 S 15 19 8 10 1017.9 1017.9 0.0
30/01:30pm 21.8 21.3 17.0 74 2.9 S 15 20 8 11 1018.3 1018.3 0.0
30/01:00pm 21.5 20.7 17.1 76 2.7 SSW 17 20 9 11 1018.8 1018.8 0.0
30/12:30pm 21.4 20.1 16.8 75 2.8 SSW 19 20 10 11 1019.3 1019.3 0.0
30/12:00pm 21.3 20.6 16.5 74 2.9 S 15 22 8 12 1019.9 1019.9 0.0
30/11:30am 21.2 19.7 16.8 76 2.7 SSW 20 24 11 13 1020.2 1020.2 0.0
30/11:00am 20.4 19.2 17.0 81 2.1 SW 19 24 10 13 1020.5 1020.5 0.0
30/10:30am 19.6 17.8 15.9 79 2.2 SW 20 24 11 13 1020.8 1020.8 0.0
30/10:00am 19.1 17.3 15.6 80 2.1 SW 19 20 10 11 1021.0 1021.0 0.0
30/09:30am 18.9 17.0 15.8 82 1.8 SW 20 24 11 13 1021.2 1021.2 0.0
30/09:00am 18.5 16.4 15.2 81 1.9 WSW 20 24 11 13 1021.1 1021.1 0.0
30/08:30am 18.3 16.1 15.0 81 1.9 WSW 20 24 11 13 1020.8 1020.8 0.0
30/08:00am 18.6 16.6 15.5 82 1.8 SW 20 24 11 13 1020.6 1020.6 0.0
30/07:30am 18.4 15.9 15.1 81 1.9 SW 22 26 12 14 1020.4 1020.4 0.0
30/07:00am 18.3 16.2 15.2 82 1.8 WSW 20 24 11 13 1020.1 1020.1 0.0
30/06:30am 18.6 16.3 15.8 84 1.7 WSW 22 24 12 13 1019.9 1019.9 0.0
30/06:00am 18.3 15.5 15.4 83 1.7 SW 24 26 13 14 1019.8 1019.8 0.0
30/05:30am 18.7 16.7 15.4 81 1.9 SW 20 24 11 13 1019.4 1019.4 0.0
30/05:00am 18.7 16.1 15.0 79 2.2 WSW 22 30 12 16 1019.2 1019.2 0.0
30/04:30am 18.9 16.5 15.4 80 2.1 WSW 22 26 12 14 1019.3 1019.3 0.0
30/04:00am 18.8 16.1 14.7 77 2.4 WSW 22 28 12 15 1019.2 1019.2 0.0
30/03:30am 19.1 17.0 14.6 75 2.6 SSW 19 26 10 14 1019.5 1019.5 0.0
30/03:00am 18.8 17.1 14.7 77 2.4 SW 17 24 9 13 1019.4 1019.4 0.0
30/02:30am 20.4 19.9 16.0 76 2.6 S 13 20 7 11 1019.6 1019.6 0.0
30/02:00am 20.4 21.0 16.8 80 2.2 S 9 22 5 12 1020.1 1020.1 0.0
30/01:30am 18.9 16.8 14.6 76 2.5 SW 19 22 10 12 1020.5 1020.5 0.0
30/01:00am 17.8 15.9 12.9 73 2.7 SW 15 24 8 13 1021.0 1021.0 0.0
30/12:30am 18.7 16.7 13.8 73 2.8 WSW 17 22 9 12 1021.0 1021.0 0.0
30/12:00am 19.6 19.7 14.4 72 3.0 SW 7 11 4 6 1021.3 1021.3 0.0
 
Date/Time
EST
Temp
°C
App
Temp
°C
Dew
Point
°C
Rel
Hum
%
Delta-T
°C
Wind Press
QNH
hPa
Press
MSL
hPa
Rain since
9am
mm
Dir  Spd
km/h
Gust
km/h
Spd
kts
Gust
kts
29/11:30pm 21.9 19.9 13.8 60 4.7 SE 17 26 9 14 1021.2 1021.2 0.0
29/11:00pm 21.8 20.8 14.7 64 4.2 S 13 19 7 10 1021.4 1021.4 0.0
29/10:30pm 21.8 19.8 12.6 56 5.2 S 15 24 8 13 1021.7 1021.7 0.0
29/10:00pm 21.9 18.9 12.5 55 5.3 SE 20 33 11 18 1021.7 1021.7 0.0
29/09:30pm 21.7 20.0 14.8 65 4.1 S 17 22 9 12 1021.9 1021.9 0.0
29/09:00pm 21.3 19.8 15.2 68 3.6 S 17 26 9 14 1021.8 1021.8 0.0
29/08:30pm 20.8 19.8 15.6 72 3.1 S 15 22 8 12 1021.7 1021.7 0.0
29/08:00pm 20.5 19.3 15.1 71 3.2 S 15 24 8 13 1021.5 1021.5 0.0
29/07:30pm 20.3 19.1 15.1 72 3.1 S 15 26 8 14 1021.4 1021.4 0.0
29/07:00pm 20.2 19.3 14.8 71 3.2 S 13 20 7 11 1021.1 1021.1 0.0
29/06:30pm 19.9 18.7 14.0 69 3.4 SSE 13 20 7 11 1021.0 1021.0 0.0
29/06:00pm 20.0 19.2 13.9 68 3.5 S 11 20 6 11 1020.9 1020.9 0.0
29/05:30pm 20.0 18.4 12.7 63 4.1 S 13 20 7 11 1020.7 1020.7 0.0
29/05:00pm 20.1 18.3 13.3 65 3.9 S 15 22 8 12 1020.9 1020.9 0.0
29/04:30pm 19.9 17.0 12.2 61 4.3 S 19 22 10 12 1020.6 1020.6 0.0
29/04:00pm 19.6 16.6 12.1 62 4.2 S 19 24 10 13 1020.6 1020.6 0.0
29/03:30pm 19.4 16.9 12.2 63 4.0 S 17 26 9 14 1020.6 1020.6 0.0
29/03:00pm 19.1 16.0 12.1 64 3.9 S 20 26 11 14 1020.6 1020.6 0.0
29/02:30pm 19.0 16.0 11.8 63 4.0 S 19 22 10 12 1020.8 1020.8 0.0
29/02:00pm 18.8 15.6 11.4 62 4.0 S 19 24 10 13 1020.9 1020.9 0.0
29/01:30pm 18.6 15.3 10.9 61 4.2 S 19 24 10 13 1021.3 1021.3 0.0
29/01:00pm 18.5 14.9 10.6 60 4.2 S 20 26 11 14 1021.7 1021.7 0.0
29/12:30pm 18.2 14.7 10.3 60 4.2 S 19 24 10 13 1022.0 1022.0 0.0
29/12:00pm 18.1 14.4 10.2 60 4.2 S 20 28 11 15 1022.5 1022.5 0.0
29/11:30am 18.0 13.9 10.1 60 4.2 S 22 30 12 16 1023.0 1023.0 0.0
29/11:00am 18.1 14.6 11.0 63 3.8 S 20 28 11 15 1023.2 1023.2 0.0
29/10:30am 18.2 14.6 10.6 61 4.1 S 20 30 11 16 1023.4 1023.4 0.0
29/10:00am 18.0 13.3 9.4 57 4.5 SSE 24 32 13 17 1023.5 1023.5 0.0
29/09:30am 18.2 14.1 8.5 53 5.0 S 20 32 11 17 1023.5 1023.5 0.0
29/09:00am 18.3 15.0 9.6 57 4.6 S 17 28 9 15 1023.3 1023.3 0.2
29/08:30am 18.3 14.7 9.9 58 4.5 S 19 35 10 19 1023.0 1023.0 0.2
29/08:00am 18.4 15.0 9.2 55 4.8 S 17 28 9 15 1022.8 1022.8 0.2
29/07:30am 18.3 14.8 8.8 54 4.9 S 17 30 9 16 1022.4 1022.4 0.2
29/07:00am 18.1 12.8 8.4 53 5.0 S 26 35 14 19 1022.3 1022.3 0.2
29/06:30am 18.3 13.4 8.3 52 5.1 S 24 35 13 19 1022.2 1022.2 0.2
29/06:00am 18.5 13.3 8.7 53 5.1 S 26 39 14 21 1022.0 1022.0 0.2
29/05:30am 18.7 14.1 9.5 55 4.9 S 24 35 13 19 1022.0 1022.0 0.2
29/05:00am 18.8 13.3 9.0 53 5.1 S 28 37 15 20 1021.7 1021.7 0.2
29/04:30am 19.1 12.7 8.4 50 5.5 S 32 41 17 22 1021.7 1021.7 0.2
29/04:00am 19.5 13.2 8.8 50 5.6 S 32 44 17 24 1021.7 1021.7 0.2
29/03:30am 19.8 13.6 10.2 54 5.2 S 33 43 18 23 1021.7 1021.7 0.2
29/03:00am 19.8 13.2 7.9 46 6.1 S 32 44 17 24 1021.8 1021.8 0.2
29/02:30am 19.9 14.3 7.3 44 6.4 S 26 39 14 21 1022.0 1022.0 0.2
29/02:00am 20.1 14.6 9.1 49 5.8 S 28 39 15 21 1022.1 1022.1 0.2
29/01:30am 20.4 13.6 6.7 41 6.9 S 32 39 17 21 1022.2 1022.2 0.2
29/01:00am 20.6 13.1 6.2 39 7.2 S 35 44 19 24 1022.4 1022.4 0.2
29/12:30am 21.3 16.0 8.6 44 6.7 S 26 37 14 20 1022.3 1022.3 0.2
29/12:00am 21.5 15.2 5.8 36 7.8 S 28 39 15 21 1022.2 1022.2 0.2
 
Date/Time
EST
Temp
°C
App
Temp
°C
Dew
Point
°C
Rel
Hum
%
Delta-T
°C
Wind Press
QNH
hPa
Press
MSL
hPa
Rain since
9am
mm
Dir  Spd
km/h
Gust
km/h
Spd
kts
Gust
kts
28/11:30pm 21.6 14.3 7.1 39 7.4 S 35 44 19 24 1022.2 1022.2 0.2
28/11:00pm 21.8 14.2 5.7 35 8.0 S 35 46 19 25 1022.2 1022.2 0.2
28/10:30pm 22.0 14.0 7.4 39 7.6 S 39 48 21 26 1022.2 1022.2 0.2
28/10:00pm 22.3 15.3 8.4 41 7.3 S 35 46 19 25 1022.2 1022.2 0.2
28/09:30pm 22.5 16.5 10.0 45 6.8 S 32 43 17 23 1021.8 1021.8 0.0
28/09:00pm 22.8 16.6 9.9 44 7.0 S 33 44 18 24 1021.7 1021.7 0.0
28/08:30pm 23.1 18.0 9.1 41 7.5 S 26 39 14 21 1021.4 1021.4 0.0
28/08:00pm 23.3 20.4 11.0 46 6.8 SSE 17 26 9 14 1020.9 1020.9 0.0

Other Formats:

Comma delimited format used in spreadsheet applications
http://www.bom.gov.au/fwo/IDQ60801/IDQ60801.94295.axf

JavaScript Object Notation format (JSON) in row-major order
http://www.bom.gov.au/fwo/IDQ60801/IDQ60801.94295.json